Startpagina
METAR-TAF:

METAR-TAF

Vliegvelden :

Bloemfontein, Zuid-Afrika

breedte: 29-06S, lengte: 026-18E, hoogte: 1354 m

Actueel weer

Dit bericht is 42 minuten geleden gemaakt, om 06:00 UTC
Wind 2 kt uit variabele richting
Temperatuur 9°C
Vochtigheid 87%
Druk 1026 hPa
Zicht: 7000 m

METAR: FABL 230600Z VRB02KT 7000 NSC 09/07 Q1026 NOSIG

Tijdstip: 08:42 (06:42 UTC)

Verwachting

Dit bericht is 2 uur en het 42 minuten geleden gemaakt, om 04:00 UTC
Verwachting geldig van 23 om 06 UTC tot 24 om 06 UTC
Wind 3 kt uit variabele richting
Zicht 10 km of meer
geen wolken onder 1500 m en geen cumulonimbus

TAF: FABL 230400Z 2306/2406 VRB03KT CAVOK TX23/2312Z TN05/2404Z

Waarnemingen en weersverwachtingen van meer dan 4000 vliegvelden (METAR en TAF).

De beschikbare stations zijn de gele en rode punten op de kaart.

Ga met uw muis naar het station om de naam te zien.

Klik dan om waarnemingen en weersverwachtingen te zien.

kaart wijzigen: klik op de groene knoppen met een zwart kruis om in te zoomen, op de groene knop met een streepje om uit te zoomen of op de groene pijlen voor aangrenzende kaarten.


METAR-TAF: